Airfield :
LOGIN :

Register | Disclaimer

   EN    FR    IT 

 










Legend :    VFR   Marginal VFR   IFR   Intensive IFR   Very Intensive IFR
Visi :
Ceiling :
>= 8 km
>= 3000ft
5 to 8 km
1000 to 3000 ft
1500m to 5 km
500 to 1000 ft
800 to 1500m
200 to 500 ft
< 800m
< 200 ft
Symbols :   Thunderstorms  Fog  Heavy snow  Heavy precipitations  Wind > 20 kt
SIGMETs :     Misc.  Thunderstorms  Icing  Turbulence  Mountain Waves  Volcanic Ashes







- Airport Elevation : 202 ft
- IATA code : SQZ


EGXP - RAF Scampton

CURRENT METAR :
  • 191150Z 08004KT 1500 BR BKN002 14/14 Q1003 AMB

EXPIRED METARs :
  • 191107Z 11004KT 1000 BR OVC001 14/14 Q1004 RED
  • 191027Z 12005KT 1500 BR BKN003 BKN046 13/13 Q1004 AMB
  • 190950Z 13006KT 1700 RA BKN003 OVC050 13/13 Q1005 YLO2

TAF TAF EGXP
Valid from the 19 at 12:00 until the 19 at 18:00 UTC


191052Z 1912/1918 12006KT 3000 -RA BKN003
TEMPO 1912/1917 2000 RA BKN002
PROB30
TEMPO 1912/1916 0400 FG BKN000
BECMG 1913/1916 BKN005
BECMG 1917/1918 9999 NSW FEW010
No reported NOTAMs for that airfield.



MET'MAP, your aeronautical weather chart ! - Copyright ORBIFLY December 2007 - Disclaimer

ORBIFLY MET'MAP TEAM :

Programming & Development : Alexandra Zaïnal
Concept & Development : Baudouin d'Aumeries
Co-Development & Prog : Marc-Olivier Méhu
Technical & hardware support : Manuel Goepfert

Contact : metmap@orbifly.com




SOURCES & CREDITS :

   NOAA